Belfast, ME (04915)

12:03 AM EST on February 11, 2016 (GMT -0500)
Belfast (Lower Mason Pond) | | Change Station
CLOSE
Current Station
Personal Weather Station
Location: Belfast, ME
Elevation: 160 ft
Nearby Weather Stations

Elev 160 ft 44.45 °N, 69.01 °W | Updated 11 seconds ago

Fog
Fog
28.6 °F
Feels Like 29 °F
N
0.0
Wind Variable Wind from SSE
Gusts 0.0 mph

Today
High -- | Low -- °F
--% Chance of Precip.
Yesterday
High -- | Low -- °F
Precip. -- in
Pressure 29.55 in
Visibility 0.2 miles
Clouds
Windchill 29 °F
Dew Point 26 °F
Humidity 91%
Rainfall 0.00 in
Snow Depth Not available.
6:42 AM 4:58 PM
Waxing Crescent, 9% visible
METAR KRKD 110456Z AUTO 00000KT 1/4SM FZFG M07/M07 A2955 RMK AO2 SLP007 T10671072 410061156 FZRANO
Pressure 29.55 in
Visibility 0.2 miles
Clouds
Windchill 29 °F
Dew Point 26 °F
Humidity 91%
Rainfall 0.00 in
Snow Depth Not available.
6:42 AM 4:58 PM
Waxing Crescent, 9% visible
METAR KRKD 110456Z AUTO 00000KT 1/4SM FZFG M07/M07 A2955 RMK AO2 SLP007 T10671072 410061156 FZRANO

10-Day Weather Forecast

Almanac

Astronomy

Feb. 11, 2016 Rise Set
Actual Time
Civil Twilight
Nautical Twilight
Astronomical Twilight
Moon
Length of Visible Light
Length of Day
Tomorrow will be .
, % of the Moon is Illuminated

Today's Extremes

State Highs State Lows

Community

WunderPhotos

Upload Photos

1,892,016 photos uploaded!

WunderBlog® & News

Nearby

Air Quality

  Air Quality AQ Index Pollutant
Not available.

Snow Depth

Station Depth Elevation

Earthquake Activity

City Distance Mag. Time & Date
Minimum magnitude displayed is 2.5.

Coastal Water Temperatures

Place Temperature

Stations

Nearby Weather Stations

Station Location Temp. Windchill Dew Point Humidity Wind Precip. Elev Updated Type
                   

Watches & Warnings

There are currently no watches in effect.